sensor_id;sensor_type;location;lat;lon;timestamp;pressure;altitude;pressure_sealevel;temperature;humidity
47260;BME280;32999;52.412;4.890;2023-04-08T00:00:36;102340.81;;;9.75;100.00
47260;BME280;32999;52.412;4.890;2023-04-08T00:05:38;102239.84;;;8.95;100.00
47260;BME280;32999;52.412;4.890;2023-04-08T00:10:40;102301.31;;;9.12;100.00
47260;BME280;32999;52.412;4.890;2023-04-08T00:15:43;102324.75;;;9.09;100.00
47260;BME280;32999;52.412;4.890;2023-04-08T00:20:48;102397.31;;;9.41;100.00
47260;BME280;32999;52.412;4.890;2023-04-08T00:25:50;102384.00;;;9.32;100.00
47260;BME280;32999;52.412;4.890;2023-04-08T00:30:53;102325.28;;;8.64;100.00
47260;BME280;32999;52.412;4.890;2023-04-08T00:35:55;102396.75;;;8.99;100.00
47260;BME280;32999;52.412;4.890;2023-04-08T00:40:57;102287.69;;;8.27;100.00
47260;BME280;32999;52.412;4.890;2023-04-08T00:46:00;102397.78;;;8.58;100.00
47260;BME280;32999;52.412;4.890;2023-04-08T00:51:03;102381.47;;;8.51;100.00
47260;BME280;32999;52.412;4.890;2023-04-08T00:56:05;102390.84;;;8.46;100.00
47260;BME280;32999;52.412;4.890;2023-04-08T01:01:15;102394.34;;;8.37;100.00
47260;BME280;32999;52.412;4.890;2023-04-08T01:06:24;102411.47;;;8.23;100.00
47260;BME280;32999;52.412;4.890;2023-04-08T01:11:43;102401.06;;;8.20;100.00
47260;BME280;32999;52.412;4.890;2023-04-08T01:16:48;102395.34;;;8.25;100.00
47260;BME280;32999;52.412;4.890;2023-04-08T01:21:51;102397.50;;;8.31;100.00
47260;BME280;32999;52.412;4.890;2023-04-08T01:26:57;102400.25;;;8.40;100.00
47260;BME280;32999;52.412;4.890;2023-04-08T01:32:01;102401.09;;;8.50;100.00
47260;BME280;32999;52.412;4.890;2023-04-08T01:37:04;102411.22;;;8.57;100.00
47260;BME280;32999;52.412;4.890;2023-04-08T01:42:08;102359.69;;;8.37;100.00
47260;BME280;32999;52.412;4.890;2023-04-08T01:47:12;102409.03;;;8.71;100.00
47260;BME280;32999;52.412;4.890;2023-04-08T01:52:15;102373.63;;;8.50;100.00
47260;BME280;32999;52.412;4.890;2023-04-08T01:57:23;102434.25;;;8.67;100.00
47260;BME280;32999;52.412;4.890;2023-04-08T02:02:25;102400.88;;;8.63;100.00
47260;BME280;32999;52.412;4.890;2023-04-08T02:07:27;102413.38;;;8.63;100.00
47260;BME280;32999;52.412;4.890;2023-04-08T02:12:32;102417.72;;;8.64;100.00
47260;BME280;32999;52.412;4.890;2023-04-08T02:17:42;102359.63;;;8.27;100.00
47260;BME280;32999;52.412;4.890;2023-04-08T02:22:47;102413.97;;;8.45;100.00
47260;BME280;32999;52.412;4.890;2023-04-08T02:27:52;102416.88;;;8.33;100.00
47260;BME280;32999;52.412;4.890;2023-04-08T02:33:05;102423.22;;;8.20;100.00
47260;BME280;32999;52.412;4.890;2023-04-08T02:38:17;102388.78;;;7.98;100.00
47260;BME280;32999;52.412;4.890;2023-04-08T02:43:40;102424.22;;;7.99;100.00
47260;BME280;32999;52.412;4.890;2023-04-08T03:31:55;102452.34;;;6.85;100.00
47260;BME280;32999;52.412;4.890;2023-04-08T03:43:15;102455.75;;;6.64;100.00
47260;BME280;32999;52.412;4.890;2023-04-08T03:48:41;102398.16;;;6.09;100.00
47260;BME280;32999;52.412;4.890;2023-04-08T03:54:50;102468.53;;;6.48;100.00
47260;BME280;32999;52.412;4.890;2023-04-08T03:59:54;102492.94;;;6.42;100.00
47260;BME280;32999;52.412;4.890;2023-04-08T04:05:10;102422.38;;;6.04;100.00
47260;BME280;32999;52.412;4.890;2023-04-08T04:10:13;102431.31;;;6.03;100.00
47260;BME280;32999;52.412;4.890;2023-04-08T04:15:29;102467.03;;;6.22;100.00
47260;BME280;32999;52.412;4.890;2023-04-08T04:21:03;102477.53;;;6.12;100.00
47260;BME280;32999;52.412;4.890;2023-04-08T04:26:14;102484.63;;;6.00;100.00
47260;BME280;32999;52.412;4.890;2023-04-08T04:31:25;102411.66;;;5.36;100.00
47260;BME280;32999;52.412;4.890;2023-04-08T06:20:13;102596.03;;;6.13;100.00
47260;BME280;32999;52.412;4.890;2023-04-08T06:25:39;102600.28;;;6.27;100.00
47260;BME280;32999;52.412;4.890;2023-04-08T06:43:35;102559.94;;;6.57;100.00
47260;BME280;32999;52.412;4.890;2023-04-08T06:48:54;102601.06;;;7.08;100.00
47260;BME280;32999;52.412;4.890;2023-04-08T06:54:19;102610.72;;;7.43;100.00
47260;BME280;32999;52.412;4.890;2023-04-08T07:30:24;102640.19;;;9.11;100.00
47260;BME280;32999;52.412;4.890;2023-04-08T07:35:14;102644.25;;;9.45;100.00
47260;BME280;32999;52.412;4.890;2023-04-08T07:40:23;102552.59;;;9.16;100.00
47260;BME280;32999;52.412;4.890;2023-04-08T07:45:26;102543.44;;;9.59;100.00
47260;BME280;32999;52.412;4.890;2023-04-08T07:50:28;102601.69;;;10.22;100.00
47260;BME280;32999;52.412;4.890;2023-04-08T07:55:32;102636.75;;;11.05;100.00
47260;BME280;32999;52.412;4.890;2023-04-08T08:00:35;102652.44;;;11.37;100.00
47260;BME280;32999;52.412;4.890;2023-04-08T08:05:43;102648.50;;;11.31;100.00
47260;BME280;32999;52.412;4.890;2023-04-08T08:10:47;102640.91;;;12.26;100.00
47260;BME280;32999;52.412;4.890;2023-04-08T08:16:00;102608.78;;;12.52;100.00
47260;BME280;32999;52.412;4.890;2023-04-08T08:21:02;102641.72;;;11.91;100.00
47260;BME280;32999;52.412;4.890;2023-04-08T08:26:06;102662.06;;;12.30;100.00
47260;BME280;32999;52.412;4.890;2023-04-08T08:31:21;102632.16;;;12.42;100.00
47260;BME280;32999;52.412;4.890;2023-04-08T08:36:31;102671.59;;;12.85;100.00
47260;BME280;32999;52.412;4.890;2023-04-08T08:41:48;102664.22;;;13.89;100.00
47260;BME280;32999;52.412;4.890;2023-04-08T08:46:52;102668.19;;;13.69;100.00
47260;BME280;32999;52.412;4.890;2023-04-08T08:51:57;102556.53;;;13.58;100.00
47260;BME280;32999;52.412;4.890;2023-04-08T08:57:00;102668.41;;;15.54;100.00
47260;BME280;32999;52.412;4.890;2023-04-08T09:02:23;102663.84;;;15.94;100.00
47260;BME280;32999;52.412;4.890;2023-04-08T09:07:39;102665.72;;;16.85;100.00
47260;BME280;32999;52.412;4.890;2023-04-08T09:12:57;102677.53;;;16.15;100.00
47260;BME280;32999;52.412;4.890;2023-04-08T09:18:02;102645.28;;;15.99;100.00
47260;BME280;32999;52.412;4.890;2023-04-08T09:23:06;102674.88;;;17.57;100.00
47260;BME280;32999;52.412;4.890;2023-04-08T09:28:18;102665.31;;;17.55;100.00
47260;BME280;32999;52.412;4.890;2023-04-08T09:33:29;102660.53;;;17.13;100.00
47260;BME280;32999;52.412;4.890;2023-04-08T09:38:31;102667.69;;;17.94;93.38
47260;BME280;32999;52.412;4.890;2023-04-08T09:43:41;102683.50;;;17.76;85.19
47260;BME280;32999;52.412;4.890;2023-04-08T09:48:49;102566.91;;;16.90;85.72
47260;BME280;32999;52.412;4.890;2023-04-08T09:53:57;102663.88;;;18.46;85.54
47260;BME280;32999;52.412;4.890;2023-04-08T09:59:02;102575.69;;;17.73;89.32
47260;BME280;32999;52.412;4.890;2023-04-08T10:04:17;102693.63;;;18.88;82.96
47260;BME280;32999;52.412;4.890;2023-04-08T10:09:35;102694.94;;;18.28;87.16
47260;BME280;32999;52.412;4.890;2023-04-08T10:14:38;102597.59;;;15.99;95.70
47260;BME280;32999;52.412;4.890;2023-04-08T10:19:41;102678.88;;;18.27;80.83
47260;BME280;32999;52.412;4.890;2023-04-08T10:25:27;102699.66;;;15.80;89.21
47260;BME280;32999;52.412;4.890;2023-04-08T10:30:38;102697.44;;;17.35;82.76
47260;BME280;32999;52.412;4.890;2023-04-08T10:41:23;102668.50;;;19.29;70.76
47260;BME280;32999;52.412;4.890;2023-04-08T10:46:36;102686.50;;;19.78;73.21
47260;BME280;32999;52.412;4.890;2023-04-08T10:51:42;102652.78;;;20.00;65.61
47260;BME280;32999;52.412;4.890;2023-04-08T10:56:51;102652.47;;;19.75;64.92
47260;BME280;32999;52.412;4.890;2023-04-08T11:01:53;102587.13;;;19.70;65.90
47260;BME280;32999;52.412;4.890;2023-04-08T11:06:57;102601.88;;;20.28;61.25
47260;BME280;32999;52.412;4.890;2023-04-08T11:12:16;102558.75;;;19.66;63.19
47260;BME280;32999;52.412;4.890;2023-04-08T11:17:18;102631.06;;;21.19;57.89
47260;BME280;32999;52.412;4.890;2023-04-08T11:22:22;102627.16;;;20.42;53.19
47260;BME280;32999;52.412;4.890;2023-04-08T11:27:23;102649.38;;;19.44;56.44
47260;BME280;32999;52.412;4.890;2023-04-08T11:32:26;102668.56;;;19.42;55.26
47260;BME280;32999;52.412;4.890;2023-04-08T11:37:37;102640.56;;;19.69;54.99
47260;BME280;32999;52.412;4.890;2023-04-08T11:42:39;102569.31;;;19.48;54.08
47260;BME280;32999;52.412;4.890;2023-04-08T11:47:41;102639.88;;;20.28;55.21
47260;BME280;32999;52.412;4.890;2023-04-08T11:52:50;102654.13;;;20.96;52.74
47260;BME280;32999;52.412;4.890;2023-04-08T11:58:00;102681.47;;;19.75;60.05
47260;BME280;32999;52.412;4.890;2023-04-08T12:03:04;102693.34;;;17.98;64.00
47260;BME280;32999;52.412;4.890;2023-04-08T12:08:17;102590.00;;;17.37;71.06
47260;BME280;32999;52.412;4.890;2023-04-08T12:13:19;102670.28;;;18.02;66.90
47260;BME280;32999;52.412;4.890;2023-04-08T12:18:31;102685.34;;;18.68;64.32
47260;BME280;32999;52.412;4.890;2023-04-08T12:23:59;102672.94;;;19.09;65.35
47260;BME280;32999;52.412;4.890;2023-04-08T12:34:48;102653.69;;;19.66;62.94
47260;BME280;32999;52.412;4.890;2023-04-08T12:39:51;102661.16;;;20.18;58.13
47260;BME280;32999;52.412;4.890;2023-04-08T12:44:53;102621.13;;;18.62;62.53
47260;BME280;32999;52.412;4.890;2023-04-08T12:49:55;102674.22;;;19.47;59.33
47260;BME280;32999;52.412;4.890;2023-04-08T12:54:58;102648.44;;;21.04;56.95
47260;BME280;32999;52.412;4.890;2023-04-08T13:00:00;102664.19;;;19.41;61.75
47260;BME280;32999;52.412;4.890;2023-04-08T13:05:03;102638.28;;;19.38;62.37
47260;BME280;32999;52.412;4.890;2023-04-08T13:10:13;102666.69;;;18.38;68.32
47260;BME280;32999;52.412;4.890;2023-04-08T13:15:38;102664.50;;;16.50;82.75
47260;BME280;32999;52.412;4.890;2023-04-08T13:20:45;102662.16;;;16.70;83.16
47260;BME280;32999;52.412;4.890;2023-04-08T13:25:57;102664.00;;;16.23;88.50
47260;BME280;32999;52.412;4.890;2023-04-08T13:31:17;102647.03;;;16.38;72.84
47260;BME280;32999;52.412;4.890;2023-04-08T13:36:44;102670.97;;;15.40;78.51
47260;BME280;32999;52.412;4.890;2023-04-08T13:41:47;102673.78;;;14.42;92.60
47260;BME280;32999;52.412;4.890;2023-04-08T13:46:50;102563.47;;;14.10;100.00
47260;BME280;32999;52.412;4.890;2023-04-08T13:51:52;102653.13;;;14.51;100.00
47260;BME280;32999;52.412;4.890;2023-04-08T13:56:55;102585.13;;;13.92;100.00
47260;BME280;32999;52.412;4.890;2023-04-08T14:01:59;102665.06;;;13.90;100.00
47260;BME280;32999;52.412;4.890;2023-04-08T14:07:02;102611.75;;;13.19;100.00
47260;BME280;32999;52.412;4.890;2023-04-08T14:12:05;102593.13;;;13.68;100.00
47260;BME280;32999;52.412;4.890;2023-04-08T14:17:07;102617.47;;;13.24;100.00
47260;BME280;32999;52.412;4.890;2023-04-08T14:22:22;102590.09;;;12.86;100.00
47260;BME280;32999;52.412;4.890;2023-04-08T14:27:29;102561.38;;;12.87;100.00
47260;BME280;32999;52.412;4.890;2023-04-08T14:32:34;102678.06;;;13.52;100.00
47260;BME280;32999;52.412;4.890;2023-04-08T14:37:45;102646.78;;;12.91;100.00
47260;BME280;32999;52.412;4.890;2023-04-08T14:42:48;102654.13;;;13.33;100.00
47260;BME280;32999;52.412;4.890;2023-04-08T14:53:08;102649.84;;;12.97;100.00
47260;BME280;32999;52.412;4.890;2023-04-08T14:58:12;102574.91;;;12.77;100.00
47260;BME280;32999;52.412;4.890;2023-04-08T15:03:13;102569.09;;;12.82;100.00
47260;BME280;32999;52.412;4.890;2023-04-08T15:08:26;102655.44;;;13.29;100.00
47260;BME280;32999;52.412;4.890;2023-04-08T15:13:43;102645.41;;;13.39;100.00
47260;BME280;32999;52.412;4.890;2023-04-08T15:18:47;102660.25;;;12.74;100.00
47260;BME280;32999;52.412;4.890;2023-04-08T15:23:49;102643.06;;;13.10;100.00
47260;BME280;32999;52.412;4.890;2023-04-08T15:28:57;102654.59;;;13.03;100.00
47260;BME280;32999;52.412;4.890;2023-04-08T15:33:59;102543.47;;;12.36;100.00
47260;BME280;32999;52.412;4.890;2023-04-08T15:39:02;102596.53;;;12.50;100.00
47260;BME280;32999;52.412;4.890;2023-04-08T15:44:16;102670.34;;;12.80;100.00
47260;BME280;32999;52.412;4.890;2023-04-08T15:49:20;102585.00;;;12.32;100.00
47260;BME280;32999;52.412;4.890;2023-04-08T15:54:22;102656.03;;;12.71;100.00
47260;BME280;32999;52.412;4.890;2023-04-08T15:59:33;102652.91;;;13.02;100.00
47260;BME280;32999;52.412;4.890;2023-04-08T16:04:44;102583.00;;;12.34;100.00
47260;BME280;32999;52.412;4.890;2023-04-08T16:09:46;102654.13;;;12.64;100.00
47260;BME280;32999;52.412;4.890;2023-04-08T16:14:49;102582.53;;;12.20;100.00
47260;BME280;32999;52.412;4.890;2023-04-08T16:20:03;102652.44;;;12.63;100.00
47260;BME280;32999;52.412;4.890;2023-04-08T16:25:05;102644.50;;;12.35;100.00
47260;BME280;32999;52.412;4.890;2023-04-08T16:30:17;102646.19;;;12.54;100.00
47260;BME280;32999;52.412;4.890;2023-04-08T16:35:20;102622.34;;;12.51;100.00
47260;BME280;32999;52.412;4.890;2023-04-08T16:40:36;102600.53;;;12.28;100.00
47260;BME280;32999;52.412;4.890;2023-04-08T16:45:42;102651.22;;;12.39;100.00
47260;BME280;32999;52.412;4.890;2023-04-08T16:50:45;102639.84;;;12.37;100.00
47260;BME280;32999;52.412;4.890;2023-04-08T16:55:50;102621.66;;;11.96;100.00
47260;BME280;32999;52.412;4.890;2023-04-08T17:00:54;102663.56;;;12.14;100.00
47260;BME280;32999;52.412;4.890;2023-04-08T17:06:05;102651.31;;;12.30;100.00
47260;BME280;32999;52.412;4.890;2023-04-08T17:11:09;102648.56;;;12.21;100.00
47260;BME280;32999;52.412;4.890;2023-04-08T17:16:48;102644.03;;;12.22;100.00
47260;BME280;32999;52.412;4.890;2023-04-08T17:21:52;102663.28;;;11.90;100.00
47260;BME280;32999;52.412;4.890;2023-04-08T17:26:54;102647.88;;;12.02;100.00
47260;BME280;32999;52.412;4.890;2023-04-08T17:31:58;102645.53;;;11.89;100.00
47260;BME280;32999;52.412;4.890;2023-04-08T17:37:15;102638.97;;;11.74;100.00
47260;BME280;32999;52.412;4.890;2023-04-08T17:42:18;102643.66;;;11.72;100.00
47260;BME280;32999;52.412;4.890;2023-04-08T17:47:23;102649.22;;;11.88;100.00
47260;BME280;32999;52.412;4.890;2023-04-08T17:58:33;102641.91;;;11.53;100.00
47260;BME280;32999;52.412;4.890;2023-04-08T18:03:57;102644.44;;;11.54;100.00
47260;BME280;32999;52.412;4.890;2023-04-08T18:09:07;102645.03;;;11.48;100.00
47260;BME280;32999;52.412;4.890;2023-04-08T18:14:09;102673.00;;;11.36;100.00
47260;BME280;32999;52.412;4.890;2023-04-08T18:25:11;102660.44;;;11.00;100.00
47260;BME280;32999;52.412;4.890;2023-04-08T18:30:15;102667.75;;;10.98;100.00
47260;BME280;32999;52.412;4.890;2023-04-08T18:41:42;102636.69;;;10.68;100.00
47260;BME280;32999;52.412;4.890;2023-04-08T18:47:10;102704.16;;;11.18;100.00
47260;BME280;32999;52.412;4.890;2023-04-08T18:58:24;102672.28;;;10.78;100.00
47260;BME280;32999;52.412;4.890;2023-04-08T19:04:04;102711.97;;;11.02;100.00
47260;BME280;32999;52.412;4.890;2023-04-08T19:09:08;102670.31;;;10.70;100.00
47260;BME280;32999;52.412;4.890;2023-04-08T19:20:56;102721.13;;;10.99;100.00
47260;BME280;32999;52.412;4.890;2023-04-08T21:28:36;102761.75;;;10.26;100.00
47260;BME280;32999;52.412;4.890;2023-04-08T21:33:39;102747.34;;;10.07;100.00
47260;BME280;32999;52.412;4.890;2023-04-08T21:38:48;102758.38;;;10.23;100.00
47260;BME280;32999;52.412;4.890;2023-04-08T21:44:00;102751.53;;;10.00;100.00
47260;BME280;32999;52.412;4.890;2023-04-08T21:49:13;102748.94;;;10.19;100.00
47260;BME280;32999;52.412;4.890;2023-04-08T21:54:25;102679.09;;;9.84;100.00
47260;BME280;32999;52.412;4.890;2023-04-08T21:59:28;102748.00;;;10.30;100.00
47260;BME280;32999;52.412;4.890;2023-04-08T22:04:30;102748.06;;;10.09;100.00
47260;BME280;32999;52.412;4.890;2023-04-08T22:09:32;102750.88;;;10.17;100.00
47260;BME280;32999;52.412;4.890;2023-04-08T22:14:36;102753.25;;;10.11;100.00
47260;BME280;32999;52.412;4.890;2023-04-08T22:19:38;102610.78;;;9.32;100.00
47260;BME280;32999;52.412;4.890;2023-04-08T22:24:39;102691.84;;;9.71;100.00
47260;BME280;32999;52.412;4.890;2023-04-08T22:29:42;102710.16;;;9.85;100.00
47260;BME280;32999;52.412;4.890;2023-04-08T22:34:44;102765.72;;;10.41;100.00
47260;BME280;32999;52.412;4.890;2023-04-08T22:39:46;102751.34;;;10.22;100.00
47260;BME280;32999;52.412;4.890;2023-04-08T22:44:49;102739.41;;;10.27;100.00
47260;BME280;32999;52.412;4.890;2023-04-08T22:49:51;102724.00;;;10.09;100.00
47260;BME280;32999;52.412;4.890;2023-04-08T22:54:52;102648.56;;;9.77;100.00
47260;BME280;32999;52.412;4.890;2023-04-08T22:59:55;102747.69;;;10.23;100.00
47260;BME280;32999;52.412;4.890;2023-04-08T23:04:57;102761.53;;;10.38;100.00
47260;BME280;32999;52.412;4.890;2023-04-08T23:09:59;102741.13;;;10.47;100.00
47260;BME280;32999;52.412;4.890;2023-04-08T23:15:02;102747.75;;;10.62;100.00
47260;BME280;32999;52.412;4.890;2023-04-08T23:20:05;102742.50;;;10.32;100.00
47260;BME280;32999;52.412;4.890;2023-04-08T23:25:08;102751.38;;;10.32;100.00
47260;BME280;32999;52.412;4.890;2023-04-08T23:30:11;102730.28;;;10.48;100.00
47260;BME280;32999;52.412;4.890;2023-04-08T23:35:13;102728.34;;;10.60;100.00
47260;BME280;32999;52.412;4.890;2023-04-08T23:40:15;102728.16;;;10.33;100.00
47260;BME280;32999;52.412;4.890;2023-04-08T23:45:36;102727.19;;;10.43;100.00
47260;BME280;32999;52.412;4.890;2023-04-08T23:50:38;102738.97;;;10.21;100.00
47260;BME280;32999;52.412;4.890;2023-04-08T23:55:39;102723.75;;;10.12;100.00
